Ghotki Weather



Ghotki's Current Weather

Temprature 27.94o clear sky

clear sky

Rain: 0 %

Min Temprature27.94o
Max Temprature27.94o
Humidity62
Wind Speed4.88 m/h
Sun Rise06:12:51
Sun Set18:15:30
Current Time: 26-Sep-2022 07:51:55
Lat/Lon: 28.006, 69.3161




Ghotki's Geo Location



Ghotki's Weather Forecast

Time Overall Temp Min Temp Max Temp Humidity Wind Speed Rain
26-Sep-2022 (Mon)
08:00:00 clear sky 27.940 27.940 27.940 62 4.88 m/h 0 %
11:00:00 clear sky 29.840 29.840 33.630 53 3.99 m/h 0 %
14:00:00 clear sky 33.650 33.650 36.500 37 2.73 m/h 0 %
17:00:00 clear sky 35.980 35.980 35.980 26 1.88 m/h 0 %
20:00:00 clear sky 31.230 31.230 31.230 31 2.76 m/h 0 %
23:00:00 clear sky 29.920 29.920 29.920 34 3.67 m/h 0 %
27-Sep-2022 (Tue)
02:00:00 clear sky 28.250 28.250 28.250 46 3.43 m/h 0 %
05:00:00 clear sky 27.010 27.010 27.010 60 3.43 m/h 0 %
08:00:00 clear sky 28.910 28.910 28.910 58 4.38 m/h 0 %
11:00:00 clear sky 35.010 35.010 35.010 31 4.48 m/h 0 %
14:00:00 clear sky 37.180 37.180 37.180 24 3.73 m/h 0 %
17:00:00 clear sky 36.270 36.270 36.270 26 2.43 m/h 0 %
20:00:00 clear sky 31.450 31.450 31.450 29 3.4 m/h 0 %
23:00:00 clear sky 30.030 30.030 30.030 37 4.59 m/h 0 %
28-Sep-2022 (Wed)
02:00:00 clear sky 27.800 27.800 27.800 57 3.51 m/h 0 %
05:00:00 clear sky 26.460 26.460 26.460 59 3.86 m/h 0 %
08:00:00 clear sky 28.150 28.150 28.150 56 4.97 m/h 0 %
11:00:00 clear sky 34.270 34.270 34.270 29 4.93 m/h 0 %
14:00:00 clear sky 36.900 36.900 36.900 19 4.07 m/h 0 %
17:00:00 clear sky 35.700 35.700 35.700 23 3.02 m/h 0 %
20:00:00 clear sky 30.770 30.770 30.770 31 3.82 m/h 0 %
23:00:00 clear sky 29.360 29.360 29.360 48 4.84 m/h 0 %
29-Sep-2022 (Thu)
02:00:00 clear sky 26.990 26.990 26.990 63 3.76 m/h 0 %
05:00:00 clear sky 25.340 25.340 25.340 68 3.31 m/h 0 %
08:00:00 clear sky 27.000 27.000 27.000 64 4.25 m/h 0 %
11:00:00 clear sky 33.240 33.240 33.240 36 4.33 m/h 0 %
14:00:00 clear sky 36.170 36.170 36.170 24 4.24 m/h 0 %
17:00:00 clear sky 35.330 35.330 35.330 27 2.47 m/h 0 %
20:00:00 clear sky 30.550 30.550 30.550 35 3 m/h 0 %
23:00:00 clear sky 29.480 29.480 29.480 43 4.05 m/h 0 %
30-Sep-2022 (Fri)
02:00:00 clear sky 27.320 27.320 27.320 62 3.69 m/h 0 %
05:00:00 clear sky 25.600 25.600 25.600 67 3.34 m/h 0 %
08:00:00 clear sky 27.730 27.730 27.730 59 4.5 m/h 0 %
11:00:00 clear sky 34.160 34.160 34.160 29 4.74 m/h 0 %
14:00:00 clear sky 36.490 36.490 36.490 25 3.63 m/h 0 %
17:00:00 clear sky 35.660 35.660 35.660 28 2.3 m/h 0 %
20:00:00 clear sky 30.950 30.950 30.950 30 2.85 m/h 0 %
23:00:00 clear sky 29.270 29.270 29.270 40 4.15 m/h 0 %
01-Oct-2022 (Sat)
02:00:00 clear sky 27.180 27.180 27.180 63 3.56 m/h 0 %
05:00:00 clear sky 26.010 26.010 26.010 64 3.56 m/h 0 %

Famous Cities (61)